createdAt,value
2018-09-12T00:00:09.987Z,16.78
2018-09-12T00:01:09.909Z,16.86
2018-09-12T00:02:09.836Z,16.86
2018-09-12T00:03:09.762Z,16.87
2018-09-12T00:04:09.684Z,16.84
2018-09-12T00:05:09.612Z,16.81
2018-09-12T00:06:09.534Z,16.81
2018-09-12T00:07:09.459Z,16.81
2018-09-12T00:08:09.383Z,16.81
2018-09-12T00:09:09.307Z,16.76
2018-09-12T00:10:09.238Z,16.79
2018-09-12T00:11:09.156Z,16.81
2018-09-12T00:12:09.080Z,16.75
2018-09-12T00:13:09.005Z,16.84
2018-09-12T00:14:08.931Z,16.81
2018-09-12T00:15:08.855Z,16.72
2018-09-12T00:16:08.780Z,16.78
2018-09-12T00:17:08.706Z,16.83
2018-09-12T00:18:08.630Z,16.74
2018-09-12T00:19:08.555Z,16.76
2018-09-12T00:20:08.476Z,16.74
2018-09-12T00:21:08.426Z,16.74
2018-09-12T00:22:08.328Z,16.72
2018-09-12T00:23:08.251Z,16.65
2018-09-12T00:24:08.174Z,16.58
2018-09-12T00:25:08.098Z,16.61
2018-09-12T00:26:08.052Z,16.51
2018-09-12T00:27:07.966Z,16.57
2018-09-12T00:28:07.873Z,16.58
2018-09-12T00:29:07.803Z,16.46
2018-09-12T00:30:07.724Z,16.51
2018-09-12T00:31:07.648Z,16.46
2018-09-12T00:32:07.570Z,16.50
2018-09-12T00:33:07.494Z,16.31
2018-09-12T00:34:07.423Z,16.24
2018-09-12T00:35:07.352Z,16.29
2018-09-12T00:36:07.266Z,16.17
2018-09-12T00:37:07.200Z,16.17
2018-09-12T00:38:07.115Z,16.16
2018-09-12T00:39:07.040Z,16.17
2018-09-12T00:40:06.970Z,16.16
2018-09-12T00:41:06.900Z,16.16
2018-09-12T00:42:06.816Z,16.13
2018-09-12T00:43:06.741Z,16.12
2018-09-12T00:44:06.661Z,16.16
2018-09-12T00:45:06.587Z,16.17
2018-09-12T00:46:06.508Z,16.04
2018-09-12T00:47:06.438Z,16.09
2018-09-12T00:48:06.357Z,16.12
2018-09-12T00:49:06.282Z,16.16
2018-09-12T00:50:06.206Z,16.16
2018-09-12T00:51:06.132Z,16.12
2018-09-12T00:52:06.056Z,16.12
2018-09-12T00:53:05.980Z,16.15
2018-09-12T00:54:05.903Z,16.13
2018-09-12T00:55:05.828Z,16.04
2018-09-12T00:56:05.753Z,16.13
2018-09-12T00:57:05.675Z,16.13
2018-09-12T00:58:05.599Z,16.04
2018-09-12T00:59:05.524Z,16.01
2018-09-12T01:00:05.450Z,16.09
2018-09-12T01:01:05.369Z,16.09
2018-09-12T01:02:05.298Z,16.05
2018-09-12T01:03:05.220Z,16.02
2018-09-12T01:04:05.144Z,16.05
2018-09-12T01:05:05.068Z,16.08
2018-09-12T01:06:04.995Z,15.98
2018-09-12T01:07:04.916Z,15.91
2018-09-12T01:08:04.839Z,15.88
2018-09-12T01:09:04.762Z,15.92
2018-09-12T01:10:04.689Z,15.82
2018-09-12T01:11:04.609Z,15.94
2018-09-12T01:12:04.535Z,15.95
2018-09-12T01:13:04.460Z,15.91
2018-09-12T01:14:04.385Z,15.94
2018-09-12T01:15:04.312Z,15.83
2018-09-12T01:16:04.234Z,15.86
2018-09-12T01:17:04.153Z,15.91
2018-09-12T01:18:04.080Z,15.94
2018-09-12T01:19:04.007Z,15.97
2018-09-12T01:20:03.933Z,15.92
2018-09-12T01:21:03.850Z,15.92
2018-09-12T01:22:03.776Z,15.95
2018-09-12T01:23:03.699Z,15.92
2018-09-12T01:24:03.626Z,15.82
2018-09-12T01:25:03.546Z,15.88
2018-09-12T01:26:03.470Z,15.75
2018-09-12T01:27:03.398Z,15.76
2018-09-12T01:28:03.317Z,15.75
2018-09-12T01:29:03.243Z,15.72
2018-09-12T01:30:03.164Z,15.68
2018-09-12T01:31:03.091Z,15.61
2018-09-12T01:32:03.012Z,15.64
2018-09-12T01:33:02.936Z,15.65
2018-09-12T01:34:02.869Z,15.65
2018-09-12T01:35:02.787Z,15.67
2018-09-12T01:36:02.709Z,15.55
2018-09-12T01:37:02.634Z,15.55
2018-09-12T01:38:02.572Z,15.47
2018-09-12T01:39:02.481Z,15.49
2018-09-12T01:40:02.405Z,15.47
2018-09-12T01:41:04.941Z,15.44
2018-09-12T01:42:02.247Z,15.39
2018-09-12T01:43:02.179Z,15.40
2018-09-12T01:44:02.098Z,15.46
2018-09-12T01:45:02.024Z,15.43
2018-09-12T01:46:01.944Z,15.40
2018-09-12T01:47:01.873Z,15.44
2018-09-12T01:48:01.791Z,15.42
2018-09-12T01:49:01.716Z,15.43
2018-09-12T01:50:01.673Z,15.43
2018-09-12T01:51:01.564Z,15.37
2018-09-12T01:52:01.486Z,15.43
2018-09-12T01:53:01.409Z,15.42
2018-09-12T01:54:01.335Z,15.43
2018-09-12T01:55:08.910Z,15.36
2018-09-12T01:57:05.127Z,15.29
2018-09-12T01:58:04.997Z,15.27
2018-09-12T01:59:04.933Z,15.28
2018-09-12T02:00:04.843Z,15.28
2018-09-12T02:01:04.769Z,15.35
2018-09-12T02:02:04.691Z,15.37
2018-09-12T02:03:04.622Z,15.33
2018-09-12T02:04:04.539Z,15.42
2018-09-12T02:05:04.462Z,15.31
2018-09-12T02:06:04.390Z,15.25
2018-09-12T02:07:04.310Z,15.33
2018-09-12T02:08:04.232Z,15.27
2018-09-12T02:09:04.155Z,15.24
2018-09-12T02:10:04.079Z,15.29
2018-09-12T02:11:04.028Z,15.22
2018-09-12T02:12:03.928Z,15.11
2018-09-12T02:13:03.853Z,15.11
2018-09-12T02:14:03.781Z,15.24
2018-09-12T02:15:03.709Z,15.11
2018-09-12T02:16:03.619Z,15.11
2018-09-12T02:17:03.546Z,15.17
2018-09-12T02:18:03.468Z,15.11
2018-09-12T02:19:03.393Z,15.21
2018-09-12T02:20:03.316Z,15.17
2018-09-12T02:21:03.237Z,15.19
2018-09-12T02:22:03.163Z,15.15
2018-09-12T02:23:03.087Z,15.18
2018-09-12T02:24:03.010Z,15.15
2018-09-12T02:25:02.934Z,15.11
2018-09-12T02:26:02.854Z,15.04
2018-09-12T02:27:02.783Z,15.02
2018-09-12T02:28:02.702Z,15.03
2018-09-12T02:29:02.625Z,14.97
2018-09-12T02:30:02.551Z,14.97
2018-09-12T02:31:02.474Z,14.97
2018-09-12T02:32:02.398Z,14.96
2018-09-12T02:33:02.316Z,14.88
2018-09-12T02:34:02.241Z,14.82
2018-09-12T02:35:02.164Z,14.84
2018-09-12T02:36:02.091Z,14.89
2018-09-12T02:37:02.016Z,14.88
2018-09-12T02:38:01.937Z,14.88
2018-09-12T02:39:01.861Z,15.03
2018-09-12T02:40:01.789Z,14.92
2018-09-12T02:41:01.704Z,14.96
2018-09-12T02:42:01.628Z,14.96
2018-09-12T02:43:01.557Z,14.96
2018-09-12T02:44:01.473Z,14.94
2018-09-12T02:45:01.397Z,14.94
2018-09-12T02:46:01.327Z,14.84
2018-09-12T02:47:01.245Z,14.92
2018-09-12T02:48:01.168Z,14.84
2018-09-12T02:49:01.089Z,14.84
2018-09-12T02:50:01.028Z,14.96
2018-09-12T02:51:00.940Z,14.88
2018-09-12T02:52:00.862Z,14.97
2018-09-12T02:53:00.787Z,14.92
2018-09-12T02:54:00.708Z,15.07
2018-09-12T02:55:00.630Z,15.04
2018-09-12T02:56:00.552Z,15.04
2018-09-12T02:57:00.479Z,15.04
2018-09-12T02:58:00.400Z,15.04
2018-09-12T02:59:00.323Z,15.15
2018-09-12T03:00:00.250Z,15.04
2018-09-12T03:01:00.172Z,15.11
2018-09-12T03:02:00.094Z,15.00
2018-09-12T03:03:00.018Z,15.02
2018-09-12T03:03:59.939Z,15.03
2018-09-12T03:04:59.863Z,15.04
2018-09-12T03:05:59.785Z,15.03
2018-09-12T03:06:59.709Z,15.06
2018-09-12T03:07:59.750Z,14.96
2018-09-12T03:08:59.556Z,14.89
2018-09-12T03:09:59.479Z,14.97
2018-09-12T03:10:59.403Z,14.92
2018-09-12T03:11:59.329Z,14.92
2018-09-12T03:12:59.249Z,14.79
2018-09-12T03:13:59.173Z,14.89
2018-09-12T03:14:59.095Z,14.72
2018-09-12T03:15:59.019Z,14.77
2018-09-12T03:16:58.943Z,14.72
2018-09-12T03:17:58.865Z,14.69
2018-09-12T03:18:58.807Z,14.72
2018-09-12T03:19:58.710Z,14.63
2018-09-12T03:20:58.781Z,14.66
2018-09-12T03:21:58.560Z,14.58
2018-09-12T03:22:58.481Z,14.58
2018-09-12T03:23:58.407Z,14.58
2018-09-12T03:24:58.326Z,14.45
2018-09-12T03:25:58.249Z,14.44
2018-09-12T03:26:58.174Z,14.47
2018-09-12T03:27:58.095Z,14.44
2018-09-12T03:28:58.017Z,14.45
2018-09-12T03:29:57.941Z,14.59
2018-09-12T03:30:57.865Z,14.55
2018-09-12T03:31:57.791Z,14.54
2018-09-12T03:32:57.713Z,14.55
2018-09-12T03:33:57.635Z,14.50
2018-09-12T03:34:57.558Z,14.63
2018-09-12T03:35:57.482Z,14.60
2018-09-12T03:36:57.404Z,14.68
2018-09-12T03:37:57.325Z,14.66
2018-09-12T03:38:57.250Z,14.68
2018-09-12T03:39:57.172Z,14.63
2018-09-12T03:40:57.108Z,14.73
2018-09-12T03:41:57.020Z,14.68
2018-09-12T03:42:56.944Z,14.62
2018-09-12T03:43:56.867Z,14.62
2018-09-12T03:44:56.786Z,14.77
2018-09-12T03:45:56.711Z,14.73
2018-09-12T03:46:56.633Z,14.68
2018-09-12T03:47:56.573Z,14.63
2018-09-12T03:48:56.478Z,14.65
2018-09-12T03:49:56.402Z,14.65
2018-09-12T03:50:56.328Z,14.62
2018-09-12T03:51:56.250Z,14.59
2018-09-12T03:52:56.170Z,14.60
2018-09-12T03:53:56.095Z,14.62
2018-09-12T03:54:56.020Z,14.60
2018-09-12T03:55:55.940Z,14.68
2018-09-12T03:56:55.862Z,14.66
2018-09-12T03:57:55.785Z,14.54
2018-09-12T03:58:55.709Z,14.53
2018-09-12T03:59:55.632Z,14.43
2018-09-12T04:00:55.559Z,14.51
2018-09-12T04:01:55.481Z,14.45
2018-09-12T04:02:55.450Z,14.45
2018-09-12T04:03:55.322Z,14.40
2018-09-12T04:04:55.249Z,14.43
2018-09-12T04:05:55.169Z,14.37
2018-09-12T04:06:55.093Z,14.43
2018-09-12T04:07:55.016Z,14.40
2018-09-12T04:08:54.938Z,14.33
2018-09-12T04:09:54.863Z,14.29
2018-09-12T04:10:54.783Z,14.35
2018-09-12T04:11:54.707Z,14.29
2018-09-12T04:12:54.630Z,14.30
2018-09-12T04:13:54.553Z,14.28
2018-09-12T04:14:54.478Z,14.25
2018-09-12T04:15:54.398Z,14.26
2018-09-12T04:16:54.369Z,14.28
2018-09-12T04:17:54.243Z,14.33
2018-09-12T04:18:54.176Z,14.29
2018-09-12T04:19:54.089Z,14.30
2018-09-12T04:20:54.014Z,14.30
2018-09-12T04:21:53.940Z,14.41
2018-09-12T04:22:53.860Z,14.35
2018-09-12T04:23:53.781Z,14.44
2018-09-12T04:24:53.705Z,14.37
2018-09-12T04:25:53.630Z,14.41
2018-09-12T04:26:53.551Z,14.28
2018-09-12T04:27:53.473Z,14.33
2018-09-12T04:28:53.394Z,14.29
2018-09-12T04:29:53.323Z,14.30
2018-09-12T04:30:53.241Z,14.28
2018-09-12T04:31:53.163Z,14.29
2018-09-12T04:32:53.086Z,14.32
2018-09-12T04:33:53.011Z,14.29
2018-09-12T04:34:52.932Z,14.43
2018-09-12T04:35:52.857Z,14.35
2018-09-12T04:36:52.776Z,14.33
2018-09-12T04:37:52.700Z,14.32
2018-09-12T04:38:52.624Z,14.29
2018-09-12T04:39:52.548Z,14.37
2018-09-12T04:40:52.478Z,14.37
2018-09-12T04:41:52.393Z,14.48
2018-09-12T04:42:52.358Z,14.40
2018-09-12T04:43:52.238Z,14.37
2018-09-12T04:44:52.164Z,14.32
2018-09-12T04:45:52.096Z,14.32
2018-09-12T04:46:52.008Z,14.33
2018-09-12T04:47:51.927Z,14.28
2018-09-12T04:48:51.851Z,14.23
2018-09-12T04:49:51.775Z,14.23
2018-09-12T04:50:51.698Z,14.23
2018-09-12T04:51:51.620Z,14.18
2018-09-12T04:52:51.542Z,14.29
2018-09-12T04:53:51.465Z,14.28
2018-09-12T04:54:51.392Z,14.23
2018-09-12T04:55:51.317Z,14.28
2018-09-12T04:56:51.235Z,14.25
2018-09-12T04:57:51.161Z,14.22
2018-09-12T04:58:51.079Z,14.30
2018-09-12T04:59:51.037Z,14.30
2018-09-12T05:00:50.924Z,14.22
2018-09-12T05:01:50.847Z,14.25
2018-09-12T05:02:50.772Z,14.25
2018-09-12T05:03:50.693Z,14.18
2018-09-12T05:04:50.616Z,14.25
2018-09-12T05:05:50.540Z,14.28
2018-09-12T05:06:50.460Z,14.33
2018-09-12T05:07:50.381Z,14.25
2018-09-12T05:08:50.307Z,14.35
2018-09-12T05:09:50.229Z,14.35
2018-09-12T05:10:50.152Z,14.43
2018-09-12T05:11:50.077Z,14.37
2018-09-12T05:12:49.998Z,14.37
2018-09-12T05:13:49.925Z,14.47
2018-09-12T05:14:49.843Z,14.47
2018-09-12T05:15:49.787Z,14.47
2018-09-12T05:16:49.687Z,14.55
2018-09-12T05:17:49.610Z,14.53
2018-09-12T05:18:49.535Z,14.48
2018-09-12T05:19:49.458Z,14.54
2018-09-12T05:20:49.378Z,14.48
2018-09-12T05:21:49.304Z,14.48
2018-09-12T05:22:49.226Z,14.60
2018-09-12T05:23:49.147Z,14.63
2018-09-12T05:24:49.073Z,14.63
2018-09-12T05:25:48.994Z,14.62
2018-09-12T05:26:48.916Z,14.77
2018-09-12T05:27:48.843Z,14.77
2018-09-12T05:28:48.761Z,14.78
2018-09-12T05:29:48.684Z,14.77
2018-09-12T05:30:48.613Z,14.68
2018-09-12T05:31:48.534Z,14.78
2018-09-12T05:32:48.455Z,14.73
2018-09-12T05:33:48.379Z,14.77
2018-09-12T05:34:48.301Z,14.77
2018-09-12T05:35:48.223Z,14.82
2018-09-12T05:36:48.146Z,14.77
2018-09-12T05:37:48.071Z,14.77
2018-09-12T05:38:47.997Z,14.82
2018-09-12T05:39:47.923Z,14.85
2018-09-12T05:40:47.840Z,14.77
2018-09-12T05:41:47.766Z,14.77
2018-09-12T05:42:47.694Z,14.77
2018-09-12T05:43:47.615Z,14.82
2018-09-12T05:44:47.539Z,14.86
2018-09-12T05:45:47.460Z,14.94
2018-09-12T05:46:47.378Z,14.96
2018-09-12T05:47:47.302Z,15.00
2018-09-12T05:48:47.231Z,15.02
2018-09-12T05:49:47.150Z,15.06
2018-09-12T05:50:47.073Z,15.04
2018-09-12T05:51:46.997Z,15.06
2018-09-12T05:52:46.917Z,15.04
2018-09-12T05:53:46.841Z,15.04
2018-09-12T05:54:46.768Z,15.09
2018-09-12T05:55:46.689Z,15.14
2018-09-12T05:56:46.611Z,15.11
2018-09-12T05:57:46.534Z,15.14
2018-09-12T05:58:46.585Z,15.14
2018-09-12T05:59:46.381Z,15.10
2018-09-12T06:00:46.304Z,15.14
2018-09-12T06:01:46.225Z,15.24
2018-09-12T06:02:46.151Z,15.25
2018-09-12T06:03:46.108Z,15.22
2018-09-12T06:04:45.998Z,15.31
2018-09-12T06:05:45.923Z,15.36
2018-09-12T06:06:45.907Z,15.37
2018-09-12T06:07:45.769Z,15.35
2018-09-12T06:08:45.693Z,15.40
2018-09-12T06:09:45.614Z,15.40
2018-09-12T06:10:45.538Z,15.46
2018-09-12T06:11:45.501Z,15.51
2018-09-12T06:12:45.384Z,15.46
2018-09-12T06:13:45.343Z,15.54
2018-09-12T06:14:45.239Z,15.61
2018-09-12T06:15:45.152Z,15.73
2018-09-12T06:16:45.081Z,15.70
2018-09-12T06:17:45.001Z,15.72
2018-09-12T06:18:44.924Z,15.80
2018-09-12T06:19:44.854Z,15.80
2018-09-12T06:20:44.773Z,15.82
2018-09-12T06:21:44.696Z,15.90
2018-09-12T06:22:44.620Z,15.97
2018-09-12T06:23:44.546Z,16.02
2018-09-12T06:24:44.465Z,15.98
2018-09-12T06:25:44.392Z,16.08
2018-09-12T06:26:44.314Z,16.08
2018-09-12T06:27:44.239Z,16.05
2018-09-12T06:28:44.161Z,16.12
2018-09-12T06:29:44.084Z,16.17
2018-09-12T06:30:44.042Z,16.15
2018-09-12T06:31:43.935Z,16.23
2018-09-12T06:32:43.858Z,16.24
2018-09-12T06:33:43.785Z,16.32
2018-09-12T06:34:43.705Z,16.47
2018-09-12T06:35:43.626Z,16.42
2018-09-12T06:36:43.554Z,16.50
2018-09-12T06:37:43.516Z,16.64
2018-09-12T06:38:43.454Z,16.57
2018-09-12T06:39:43.328Z,16.58
2018-09-12T06:40:43.248Z,16.74
2018-09-12T06:41:43.175Z,16.81
2018-09-12T06:42:43.097Z,16.84
2018-09-12T06:43:43.019Z,16.89
2018-09-12T06:44:42.974Z,16.93
2018-09-12T06:45:42.871Z,16.97
2018-09-12T06:46:42.793Z,17.01
2018-09-12T06:47:42.716Z,17.08
2018-09-12T06:48:42.644Z,17.09
2018-09-12T06:49:42.563Z,17.14
2018-09-12T06:50:42.491Z,17.15
2018-09-12T06:51:42.418Z,17.20
2018-09-12T06:52:42.340Z,17.24
2018-09-12T06:53:42.262Z,17.26
2018-09-12T06:54:42.196Z,17.30
2018-09-12T06:55:42.110Z,17.31
2018-09-12T06:56:42.038Z,17.42
2018-09-12T06:57:41.963Z,17.41
2018-09-12T06:58:41.884Z,17.42
2018-09-12T06:59:41.809Z,17.41
2018-09-12T07:00:41.797Z,17.39
2018-09-12T07:01:41.662Z,17.49
2018-09-12T07:02:41.585Z,17.57
2018-09-12T07:03:41.508Z,17.51
2018-09-12T07:04:41.433Z,17.64
2018-09-12T07:05:41.360Z,17.60
2018-09-12T07:06:41.326Z,17.64
2018-09-12T07:07:41.272Z,17.76
2018-09-12T07:08:41.129Z,17.68
2018-09-12T07:09:41.058Z,17.79
2018-09-12T07:10:40.989Z,17.74
2018-09-12T07:11:40.905Z,17.82
2018-09-12T07:12:40.830Z,17.80
2018-09-12T07:13:40.755Z,17.82
2018-09-12T07:14:40.679Z,17.90
2018-09-12T07:15:40.605Z,17.98
2018-09-12T07:16:40.531Z,17.90
2018-09-12T07:17:40.455Z,18.07
2018-09-12T07:18:40.381Z,18.07
2018-09-12T07:19:40.306Z,18.07
2018-09-12T07:20:40.230Z,18.10
2018-09-12T07:21:40.154Z,18.05
2018-09-12T07:22:40.077Z,18.15
2018-09-12T07:23:40.004Z,18.26
2018-09-12T07:24:39.936Z,18.28
2018-09-12T07:25:39.856Z,18.31
2018-09-12T07:26:39.781Z,18.34
2018-09-12T07:27:39.735Z,18.37
2018-09-12T07:28:39.630Z,18.43
2018-09-12T07:29:39.566Z,18.35
2018-09-12T07:30:39.557Z,18.45
2018-09-12T07:31:39.407Z,18.40
2018-09-12T07:32:39.332Z,18.44
2018-09-12T07:33:39.259Z,18.47
2018-09-12T07:34:39.182Z,18.52
2018-09-12T07:35:39.111Z,18.55
2018-09-12T07:36:39.038Z,18.56
2018-09-12T07:37:38.958Z,18.58
2018-09-12T07:38:38.883Z,18.63
2018-09-12T07:39:38.807Z,18.65
2018-09-12T07:40:38.736Z,18.73
2018-09-12T07:41:38.722Z,18.68
2018-09-12T07:42:38.591Z,18.70
2018-09-12T07:43:38.512Z,18.66
2018-09-12T07:44:38.438Z,18.77
2018-09-12T07:45:38.364Z,18.81
2018-09-12T07:46:38.287Z,18.78
2018-09-12T07:47:38.214Z,18.88
2018-09-12T07:48:38.136Z,18.81
2018-09-12T07:49:38.065Z,18.89
2018-09-12T07:50:37.992Z,18.83
2018-09-12T07:51:37.915Z,18.89
2018-09-12T07:52:37.843Z,18.98
2018-09-12T07:53:37.769Z,18.89
2018-09-12T07:54:37.698Z,18.96
2018-09-12T07:55:44.827Z,18.92
2018-09-12T07:57:41.506Z,18.89
2018-09-12T07:58:41.384Z,18.93
2018-09-12T07:59:41.308Z,18.88
2018-09-12T08:00:41.258Z,18.96
2018-09-12T08:01:41.166Z,19.09
2018-09-12T08:02:41.094Z,19.04
2018-09-12T08:03:41.012Z,19.09
2018-09-12T08:04:40.945Z,19.11
2018-09-12T08:05:40.864Z,19.09
2018-09-12T08:06:40.798Z,19.14
2018-09-12T08:07:40.725Z,19.12
2018-09-12T08:08:40.700Z,19.15
2018-09-12T08:09:40.574Z,19.19
2018-09-12T08:10:40.500Z,19.24
2018-09-12T08:11:40.419Z,19.29
2018-09-12T08:12:40.343Z,19.26
2018-09-12T08:13:40.270Z,19.31
2018-09-12T08:14:40.195Z,19.33
2018-09-12T08:15:40.123Z,19.34
2018-09-12T08:16:40.047Z,19.47
2018-09-12T08:17:39.981Z,19.45
2018-09-12T08:18:39.900Z,19.56
2018-09-12T08:19:39.828Z,19.54
2018-09-12T08:20:39.751Z,19.56
2018-09-12T08:21:39.683Z,19.63
2018-09-12T08:22:39.604Z,19.67
2018-09-12T08:23:39.528Z,19.59
2018-09-12T08:24:39.455Z,19.67
2018-09-12T08:25:39.381Z,19.73
2018-09-12T08:26:39.349Z,19.66
2018-09-12T08:27:39.232Z,19.79
2018-09-12T08:28:39.159Z,19.79
2018-09-12T08:29:39.111Z,19.88
2018-09-12T08:30:39.017Z,19.94
2018-09-12T08:31:38.953Z,19.94
2018-09-12T08:32:38.866Z,20.02
2018-09-12T08:33:38.792Z,20.06
2018-09-12T08:34:38.718Z,20.07
2018-09-12T08:35:38.649Z,20.06
2018-09-12T08:36:38.574Z,20.10
2018-09-12T08:37:38.498Z,20.11
2018-09-12T08:38:38.424Z,20.14
2018-09-12T08:39:38.351Z,20.22
2018-09-12T08:40:38.275Z,20.21
2018-09-12T08:41:38.201Z,20.18
2018-09-12T08:42:38.231Z,20.25
2018-09-12T08:43:38.059Z,20.32
2018-09-12T08:44:37.981Z,20.21
2018-09-12T08:45:37.912Z,20.37
2018-09-12T08:46:37.835Z,20.37
2018-09-12T08:47:37.764Z,20.34
2018-09-12T08:48:37.686Z,20.50
2018-09-12T08:49:37.616Z,20.52
2018-09-12T08:50:37.539Z,20.56
2018-09-12T08:51:37.467Z,20.59
2018-09-12T08:52:37.392Z,20.59
2018-09-12T08:53:37.324Z,20.63
2018-09-12T08:54:37.246Z,20.74
2018-09-12T08:55:37.171Z,20.72
2018-09-12T08:56:37.125Z,20.69
2018-09-12T08:57:37.027Z,20.75
2018-09-12T08:58:36.952Z,20.77
2018-09-12T08:59:36.879Z,20.77
2018-09-12T09:00:36.805Z,20.80
2018-09-12T09:01:36.768Z,20.75
2018-09-12T09:02:36.665Z,20.82
2018-09-12T09:03:36.643Z,20.84
2018-09-12T09:04:36.518Z,20.92
2018-09-12T09:05:36.442Z,20.92
2018-09-12T09:06:36.366Z,20.96
2018-09-12T09:07:36.293Z,21.00
2018-09-12T09:08:36.221Z,20.96
2018-09-12T09:09:36.146Z,21.05
2018-09-12T09:10:36.165Z,21.09
2018-09-12T09:11:36.004Z,21.11
2018-09-12T09:12:35.928Z,21.07
2018-09-12T09:13:35.859Z,21.20
2018-09-12T09:14:35.785Z,21.20
2018-09-12T09:15:35.733Z,21.24
2018-09-12T09:16:35.633Z,21.24
2018-09-12T09:17:35.566Z,21.32
2018-09-12T09:18:35.490Z,21.35
2018-09-12T09:19:35.418Z,21.42
2018-09-12T09:20:35.342Z,21.50
2018-09-12T09:21:35.271Z,21.60
2018-09-12T09:22:35.203Z,21.57
2018-09-12T09:23:35.184Z,21.64
2018-09-12T09:24:35.052Z,21.61
2018-09-12T09:25:34.984Z,21.57
2018-09-12T09:26:34.909Z,21.73
2018-09-12T09:27:34.838Z,21.75
2018-09-12T09:28:34.765Z,21.69
2018-09-12T09:29:34.692Z,21.75
2018-09-12T09:30:34.620Z,21.80
2018-09-12T09:31:34.546Z,21.82
2018-09-12T09:32:34.478Z,21.80
2018-09-12T09:33:34.402Z,21.91
2018-09-12T09:34:34.344Z,21.95
2018-09-12T09:35:34.416Z,22.04
2018-09-12T09:36:34.185Z,21.99
2018-09-12T09:37:34.116Z,22.10
2018-09-12T09:38:34.042Z,22.07
2018-09-12T09:39:33.963Z,22.14
2018-09-12T09:40:33.893Z,22.15
2018-09-12T09:41:33.828Z,22.13
2018-09-12T09:42:33.754Z,22.04
2018-09-12T09:43:33.677Z,22.17
2018-09-12T09:44:33.608Z,22.15
2018-09-12T09:45:33.529Z,22.25
2018-09-12T09:46:33.456Z,22.32
2018-09-12T09:47:33.385Z,22.33
2018-09-12T09:48:33.313Z,22.36
2018-09-12T09:49:33.242Z,22.45
2018-09-12T09:50:33.173Z,22.45
2018-09-12T09:51:33.096Z,22.51
2018-09-12T09:52:33.030Z,22.65
2018-09-12T09:53:32.956Z,22.62
2018-09-12T09:54:32.937Z,22.59
2018-09-12T09:55:32.814Z,22.69
2018-09-12T09:56:32.738Z,22.80
2018-09-12T09:57:32.665Z,22.72
2018-09-12T09:58:32.594Z,22.83
2018-09-12T09:59:32.522Z,22.87
2018-09-12T10:00:32.458Z,22.96
2018-09-12T10:01:32.378Z,22.98
2018-09-12T10:02:32.313Z,22.98
2018-09-12T10:03:32.234Z,23.02
2018-09-12T10:04:32.171Z,23.20
2018-09-12T10:05:32.091Z,23.17
2018-09-12T10:06:32.021Z,23.40
2018-09-12T10:07:31.950Z,23.27
2018-09-12T10:08:31.879Z,23.37
2018-09-12T10:09:31.805Z,23.50
2018-09-12T10:10:31.770Z,23.47
2018-09-12T10:11:31.662Z,23.58
2018-09-12T10:12:31.624Z,23.58
2018-09-12T10:13:31.519Z,23.62
2018-09-12T10:14:31.461Z,23.61
2018-09-12T10:15:31.383Z,23.68
2018-09-12T10:16:31.305Z,23.83
2018-09-12T10:17:31.236Z,23.81
2018-09-12T10:18:31.161Z,23.88
2018-09-12T10:19:31.096Z,23.88
2018-09-12T10:20:31.018Z,24.02
2018-09-12T10:21:30.950Z,24.02
2018-09-12T10:22:30.889Z,24.10
2018-09-12T10:23:30.812Z,24.14
2018-09-12T10:24:30.749Z,24.23
2018-09-12T10:25:30.667Z,24.26
2018-09-12T10:26:30.602Z,24.33
2018-09-12T10:27:30.523Z,24.36
2018-09-12T10:28:30.454Z,24.36
2018-09-12T10:29:30.381Z,24.50
2018-09-12T10:30:30.314Z,24.50
2018-09-12T10:31:30.239Z,24.51
2018-09-12T10:32:30.170Z,24.65
2018-09-12T10:33:30.100Z,24.60
2018-09-12T10:34:30.031Z,24.68
2018-09-12T10:35:29.958Z,24.66
2018-09-12T10:36:29.892Z,24.69
2018-09-12T10:37:29.823Z,24.73
2018-09-12T10:38:29.744Z,24.84
2018-09-12T10:39:29.674Z,24.88
2018-09-12T10:40:29.603Z,25.03
2018-09-12T10:41:29.537Z,25.06
2018-09-12T10:42:29.461Z,25.11
2018-09-12T10:43:29.393Z,25.26
2018-09-12T10:44:29.330Z,25.31
2018-09-12T10:45:29.253Z,25.41
2018-09-12T10:46:29.182Z,25.40
2018-09-12T10:47:29.117Z,25.35
2018-09-12T10:48:29.045Z,25.48
2018-09-12T10:49:28.973Z,25.68
2018-09-12T10:50:28.923Z,25.63
2018-09-12T10:51:28.887Z,25.66
2018-09-12T10:52:28.761Z,25.83
2018-09-12T10:53:28.696Z,25.90
2018-09-12T10:54:28.623Z,25.96
2018-09-12T10:55:28.555Z,25.99
2018-09-12T10:56:28.482Z,26.00
2018-09-12T10:57:28.415Z,26.05
2018-09-12T10:58:28.347Z,26.07
2018-09-12T10:59:28.278Z,26.07
2018-09-12T11:00:28.222Z,26.19
2018-09-12T11:01:28.155Z,26.28
2018-09-12T11:02:28.064Z,26.28
2018-09-12T11:03:27.995Z,26.36
2018-09-12T11:04:28.117Z,26.45
2018-09-12T11:05:27.860Z,26.48
2018-09-12T11:06:27.785Z,26.56
2018-09-12T11:07:27.716Z,26.60
2018-09-12T11:08:27.647Z,26.71
2018-09-12T11:09:27.581Z,26.74
2018-09-12T11:10:27.511Z,26.85
2018-09-12T11:11:27.440Z,26.90
2018-09-12T11:12:27.370Z,27.00
2018-09-12T11:13:27.302Z,27.10
2018-09-12T11:14:27.233Z,27.10
2018-09-12T11:15:27.164Z,27.15
2018-09-12T11:16:27.098Z,27.15
2018-09-12T11:17:27.029Z,27.14
2018-09-12T11:18:26.959Z,27.18
2018-09-12T11:19:26.894Z,27.26
2018-09-12T11:20:26.820Z,27.29
2018-09-12T11:21:26.752Z,27.35
2018-09-12T11:22:26.684Z,27.39
2018-09-12T11:23:26.613Z,27.48
2018-09-12T11:24:26.548Z,27.54
2018-09-12T11:25:26.477Z,27.55
2018-09-12T11:26:26.414Z,27.73
2018-09-12T11:27:26.340Z,27.77
2018-09-12T11:28:26.273Z,27.87
2018-09-12T11:29:26.207Z,28.05
2018-09-12T11:30:26.138Z,28.11
2018-09-12T11:31:26.128Z,28.17
2018-09-12T11:32:26.009Z,28.29
2018-09-12T11:33:25.935Z,28.51
2018-09-12T11:34:25.865Z,28.60
2018-09-12T11:35:25.798Z,28.60
2018-09-12T11:36:25.733Z,28.78
2018-09-12T11:37:25.689Z,28.97
2018-09-12T11:38:25.682Z,29.12
2018-09-12T11:39:25.538Z,29.56
2018-09-12T11:40:25.485Z,29.81
2018-09-12T11:41:25.408Z,30.47
2018-09-12T11:42:25.344Z,31.03
2018-09-12T11:43:25.284Z,31.64
2018-09-12T11:44:25.259Z,32.23
2018-09-12T11:45:25.157Z,32.82
2018-09-12T11:46:25.094Z,33.42
2018-09-12T11:47:25.037Z,33.80
2018-09-12T11:48:24.980Z,34.11
2018-09-12T11:49:24.915Z,34.58
2018-09-12T11:50:24.853Z,34.89
2018-09-12T11:51:24.797Z,35.22
2018-09-12T11:52:24.736Z,35.53
2018-09-12T11:53:24.676Z,35.98
2018-09-12T11:54:24.627Z,36.37
2018-09-12T11:55:24.565Z,36.67
2018-09-12T11:56:24.526Z,36.99
2018-09-12T11:57:24.447Z,37.17
2018-09-12T11:58:24.399Z,37.42
2018-09-12T11:59:24.331Z,37.71
2018-09-12T12:00:24.277Z,38.02
2018-09-12T12:01:24.234Z,38.20
2018-09-12T12:02:24.164Z,38.24
2018-09-12T12:03:24.108Z,38.24
2018-09-12T12:04:24.067Z,38.28
2018-09-12T12:05:23.999Z,38.15
2018-09-12T12:06:23.957Z,37.96
2018-09-12T12:07:23.889Z,38.19
2018-09-12T12:08:23.831Z,38.36
2018-09-12T12:09:23.835Z,38.65
2018-09-12T12:10:23.722Z,39.11
2018-09-12T12:11:23.668Z,39.68
2018-09-12T12:12:23.625Z,40.04
2018-09-12T12:13:23.559Z,40.31
2018-09-12T12:14:23.503Z,40.73
2018-09-12T12:15:23.515Z,40.97
2018-09-12T12:16:23.397Z,41.31
2018-09-12T12:17:23.350Z,41.55
2018-09-12T12:18:23.294Z,41.74
2018-09-12T12:19:23.241Z,41.72
2018-09-12T12:20:23.184Z,41.75
2018-09-12T12:21:23.152Z,41.87
2018-09-12T12:22:23.077Z,42.09
2018-09-12T12:23:23.024Z,42.25
2018-09-12T12:24:22.970Z,42.35
2018-09-12T12:25:22.923Z,42.28
2018-09-12T12:26:22.865Z,42.24
2018-09-12T12:27:22.815Z,42.13
2018-09-12T12:28:22.762Z,41.88
2018-09-12T12:29:22.710Z,41.82
2018-09-12T12:30:22.668Z,41.41
2018-09-12T12:31:22.608Z,41.06
2018-09-12T12:32:22.560Z,41.06
2018-09-12T12:33:22.504Z,41.29
2018-09-12T12:34:22.455Z,41.34
2018-09-12T12:35:22.455Z,41.29
2018-09-12T12:36:22.357Z,41.16
2018-09-12T12:37:22.322Z,40.78
2018-09-12T12:38:22.255Z,40.62
2018-09-12T12:39:22.206Z,40.80
2018-09-12T12:40:22.143Z,41.18
2018-09-12T12:41:22.146Z,41.62
2018-09-12T12:42:22.038Z,41.77
2018-09-12T12:43:21.990Z,41.65
2018-09-12T12:44:21.937Z,41.68
2018-09-12T12:45:21.886Z,41.71
2018-09-12T12:46:21.834Z,41.80
2018-09-12T12:47:21.781Z,41.87
2018-09-12T12:48:21.732Z,42.13
2018-09-12T12:49:21.687Z,42.19
2018-09-12T12:50:21.634Z,42.32
2018-09-12T12:51:21.680Z,42.73
2018-09-12T12:52:21.531Z,43.01
2018-09-12T12:53:21.480Z,43.33